Aviation Digital Data Service (ADDS)

Output produced by METARs form (0246 UTC 19 February 2019)
found at http://www.aviationweather.gov/metar/data/
 
VEAT 190240Z 00000KT 0800 FG NSC 18/16 Q1015 BECMG 1200 BR
TAF VEAT 190200Z 1903/1912 00000KT 1500 BR NSC 
     BECMG 1904/1906 3000 HZ 
     BECMG 1906/1908 5000 HZ
       
TAF VOAT 190200Z 1903/1912 02010KT 5000 HZ FEW015 SCT090 
     TEMPO 1909/1912 FEW025CB
       
VIAG 190130Z 18003KT 4000 BR FEW100 14/14 Q1011 BECMG 5000
TAF VIAG 182130Z 1900/1912 11005KT 0800 FG SCT250 
     BECMG 1904/1905 1500 BR 
     BECMG 1906/1907 3000 HZ 
     BECMG 1908/1909 5000 HZ
       
VAAH 190230Z 32002KT 2000 HZ FEW080 18/15 Q1013 NOSIG
TAF VAAH 190200Z 1903/1912 05003KT 1500 HZ FU FEW080 
     BECMG 1904/1906 3000 FU 
     BECMG 1907/1909 31005KT 6000 
       
TAF VEAN 190200Z 1903/1912 04004KT 2000 RA SCT016 FEW025CB OVC090 
     BECMG 1904/1906 05006KT 4000 HZ SCT018 BKN100 
     BECMG 1908/1910 4000 HZ
       
VIAR 190230Z 00000KT 2200 BR NSC 09/09 Q1013 BECMG 3000 BR
TAF VIAR 190200Z 1903/1912 VRB02KT 0600 MIFG FEW100 
     BECMG 1906/1908 09006KT 2500 HZ SCT030 BKN090 
     BECMG 1908/1912 FEW035CB
       
VAAU 190000Z 00000KT 6000 NSC 18/08 Q1012 NOSIG
TAF VAAU 190200Z 1903/1912 00000KT 3000 HZ NSC 
     BECMG 1904/1906 VRB03KT 4000 HZ 
     BECMG 1907/1909 27004KT 5000 HZ
       
VEBD 190130Z 34003KT 1500 BR FEW030 SCT250 13/13 Q1014 NOSIG
TAF VEBD 190200Z 1903/1912 18005KT 2000 BR FEW018 SCT090 
     BECMG 1906/1908 3500 HZ
       
VOBG 190230Z 12006KT 4000 BR FEW008 23/18 Q1016
TAF VOBG 190200Z 1903/1912 11010KT 6000 FEW015
       
TAF VABV 190200Z 1903/1912 36004KT 2000 HZ FU FEW080 
     BECMG 1904/1906 04006KT 5000 FU 
     BECMG 1907/1909 09006KT 6000 
       
VABP 190230Z 22003KT 6000 FEW100 15/10 Q1015 NOSIG
TAF VABP 190200Z 1903/1912 29006KT 4000 HZ NSC 
     BECMG 1908/1910 23008KT 6000 FEW025
       
VEBS 190230Z 00000KT 1500 BR FEW100 22/22 Q1014 NOSIG
TAF VEBS 190200Z 1903/1912 00000KT 2000 BR NSC 
     BECMG 1905/1907 02003KT 3500 HZ FEW020
       
TAF VABJ 190200Z 1903/1912 25006KT 2000 HZ FU FEW080 
     BECMG 1904/1906 5000 FU 
     BECMG 1907/1909 6000 
       
VERC 190230Z 00000KT 3000 HZ SCT100 16/08 Q1016 NOSIG
TAF VERC 190200Z 1903/1912 20004KT 3500 HZ FEW100 
     BECMG 1904/1905 36005KT 4500 HZ
       
VOCL 190230Z 06004KT 5000 BR NSC 24/21 Q1011 NOSIG
TAF VOCL 190200Z 1903/1912 07005KT 4000 HZ FEW015 SCY090 
     BECMG 1905/1906 27010KT 5000 HZ 
     TEMPO 1909/1912 FEW025CB
       
VICG 190230Z 04004KT 5000 BR SCT025 BKN090 13/13 Q1013 TEMPO -RA
TAF VICG 182130Z 1900/1912 14010KT 3000 BR SCT025 BKN090 
     TEMPO 1900/1903 30015G25KT 1500 TSRABR SCT025 FEW030CB BKN090 
     BECMG 1907/1709 16010KT 5000 BR SCT025 SCT100 
     TEMPO 1910/1912 3000 TSRA SCT025 FEW030CB BKN090
       
VOMM 190230Z 06002KT 2000 BR SCT018 29/26 Q1013 NOSIG
TAF VOMM 182300Z 1900/2006 18005KT 5000 BR FEW020 SCT100 
     TEMPO 1900/1903 3000 BR 
     BECMG 1905/1906 09010KT 6000 
     BECMG 1918/1919 18005KT 5000 BR 
     TEMPO 2000/2003 3000 BR 
     BECMG 1905/1906 09010KT 6000
       
VABB 190230Z 00000KT 2200 FU NSC 22/13 Q1012 NOSIG
TAF VABB 190200Z 1903/1912 VRB05KT 2500 HZ NSC 
     BECMG 1906/1908 28010KT 3000 FU 
     BECMG 1909/1911 4000 FU
       
VOCI 190230Z 00000KT 4000 BR NSC 25/23 Q1011 NOSIG
TAF VOCI 190200Z 1903/1912 07005KT 4000 HZ SCT015 SCT090 
     BECMG 1905/1906 25010KT 5000 HZ 
     TEMPO 1909/1912 FEW025CB
       
VOCB 190230Z 00000KT 3000 BR NSC 24/20 Q1014 NOSIG
TAF VOCB 182300Z 1900/2006 20005KT 5000 HZ FEW015 SCT080 
     TEMPO 1900/1903 3000 BR 
     BECMG 1909/1910 20010KT 6000 
     BECMG 1918/1919 20005KT 5000 HZ 
     TEMPO 2000/2003 3000 BR
       
TAF VECO 190200Z 1903/1912 07005KT 2500 HZ FEW020 SCT100 
     BECMG 1906/1908 3200 HZ
       
TAF VOCP 190200Z 1903/1912 VRB03KT 3000 HZ FEW020 
     BECMG 1904/1906 32007KT 5000 HZ FEW020
       
VIDN 190230Z 04003KT 6000 SCT030 12/08 Q1012
TAF VIDN 182300Z 1900/1909 00000KT 1200 BR FEW030 SCT100 
     BECMG 1904/1906 09006KT 3000 HZ SCT030 BKN100
       
VAID 190200Z 00000KT 3000 HZ NSC 16/07 Q1014 NOSIG
TAF VAID 190200Z 1903/1912 30006KT 3000 HZ NSC 
     BECMG 1908/1910 27008KT 5000 HZ FEW025
       
VEMN 190230Z 04003KT 2000 -RA SCT018 FEW025CB OVC090 14/13 Q1017 NOSIG
TAF VEMN 190200Z 1903/1912 27003KT 2000 -RA FEW010 SCT018 FEW025CB BKN100 
     BECMG 1910/1912 00000KT 2500 BR SCT018 FEW025CB BKN100
       
VEGK 190130Z 11003KT 1200 BR SCT100 14/14 Q1013 BECMG 1500
TAF VEGK 181530Z 1900/1912 VRB02KT 0800 FG FEW100 
     BECMG 1902/1904 11005KT 1500 BR 
     BECMG 1905/1907 3000 HZ 
     BECMG 1908/1910 5000 HZ
       
VEGT 190230Z 02003KT 1500 BR SCT018 FEW025CB OVC090 18/17 Q1016 NOSIG
TAF VEGT 190200Z 1903/1912 02004KT 2000 BR/-RA SCT016 FEW025CB OVC090 
     BECMG 1904/1906 01007KT 3000 HZ SCT018 BKN090 
     BECMG 1908/1910 4000 HZ
       
VIGR 190130Z VRB01KT 4000 HZ BKN090 15/09 Q1012 BECMG 5000
TAF VIGR 181530Z 1900/1912 VRB02KT 2000 BR FEW100 
     BECMG 1902/1903 20005KT 3000 BR/HZ 
     BECMG 1904/1905 5000 HZ 
     BECMG 1905/1906 25010KT 6000 SCT100 SCT250 
     TEMPO 1909/1911 FEW030TCU BKN100
       
VOHY 190230Z 16006KT 5000 HZ FEW015 25/23 Q1016 NOSIG
TAF VOHY 190200Z 1903/1912 12004KT 4000 BR HZ SCT015 
     BECMG 1904/1906 14008KT 6000 SCT020 SCT025
       
TAF VEIM 190200Z 1903/1912 12004KT 2500 BR SCT018 BKN100 
     BECMG 1904/1906 16007KT 4000 HZ 
     BECMG 1908/1910 5000 HZ
       
VIDP 190230Z 19003KT 0700 R28/1400 R29/1600 MIFG FEW040 SCT100 15/14 Q1012 BECMG 0800 MIFG
TAF VIDP 190200Z 1903/1912 09003KT 0600 MIFG FEW035 SCT100 
     BECMG 1906/1908 12006KT 1500 FU HZ 
     BECMG 1909/1910 09008KT 2500 HZ
       
VAJB 190200Z 18004KT 4000 HZ FEW030 SCT100 16/07 Q1014
TAF VAJB 190200Z 1903/1912 20006KT 3000 HZ NSC 
     BECMG 1906/1908 25008KT 4000 HZ FEW025
       
VIJP 190230Z 00000KT 2500 HZ FEW100 18/09 Q1013 NOSIG
TAF VIJP 190200Z 1903/1912 29007KT 3000 HZ SCT035 SCT100 
     BECMG 1904/1906 4000 HZ 
     TEMPO 1909/1912 1500 TSRA FEW030CB BKN100
       
TAF VIJR 181530Z 1900/1912 16005KT 6000 FEW030 SCT100 BKN250 
     TEMPO 1902/1906 5000 HZ/-RA 
     TEMPO 1909/1912 FEWTCU/CB030
       
VIJU 190130Z 36003KT 5000 BR FEW090 09/09 Q1011 TEMPO 4000
TAF VAJM 190200Z 1903/1912 25005KT 2000 HZ FU FEW080 
     BECMG 1904/1906 30006KT 5000 FU 
     BECMG 1907/1909 6000 
       
VEJS 190200Z 00000KT 2000 HZ NSC 16/12 Q1014
TAF VEJS 190200Z 1903/1912 00000KT 2500 HZ FEW100 
     BECMG 1904/1906 27005KT 3500 HZ 
     BECMG 1907/1909 00000KT 4500 HZ
       
TAF VIJO 190200Z 1903/1912 27008KT 5000 HZ SCT035 BKN100 
     BECMG 1904/1906 6000
       
TAF VEJT 190200Z 1903/1912 03004KT 3000 BR/-RA SCT016 FEW025CB OVC090 
     BECMG 1904/1906 05005KT 4000 BR/HZ SCT018 BKN090 
     BECMG 1908/1910 5000 HZ
       
VIGG 190230Z 06003KT 6000 SCT030 BKN080 09/09 Q1015
TAF VIGG 182300Z 1900/1909 00000KT 1500 BR FEW030 SCT100 
     BECMG 1904/1906 11006KT 3000 HZ SCT030 BKN100
       
TAF VICX 181530Z 1900/1912 29006KT 1000 BR SCT100 
     BECMG 1903/1904 2000 BR 
     BECMG 1905/1906 4000 HZ 
     BECMG 1907/1908 6000 SCT100 SCT250
       
TAF VAKP 190200Z 1903/1912 00000KT 3000 HZ NSC 
     BECMG 1904/1906 VRB03KT 4000 HZ 
       
VIKO 190200Z 00000KT 5000 Z FEW100 17/7 Q1012 NOSIG
TAF VIKO 182300Z 1900/1909 23005KT 2500 HZ SCT035 BKN100 
     BECMG 1904/1906 36005KT 5000 HZ
       
VIBR 190200Z 00000KT 5000-RA FEW010 SCT030 OVC080 07/07 Q1014
TAF VIBR 182300Z 1900/1909 00000KT 1000 BR FEW030 SCT100 
     BECMG 1904/1906 VRB02KT 3000 HZ SCT030 BKN090
       
VILH 190130Z VRB02KT 6000 FEW050 SCT090 BKN150 -4/-1 Q1011 NOSIG
VELP 190200Z 00000KT 1500 BR FEW018 SCT100 16/14 Q1016 NOSIG
TAF VELP 190200Z 1903/1912 00000KT 1500 BR FEW018 SCT100 
     BECMG 1904/1906 18003KT 3000 HZ FEW100
       
TAF VELR 190200Z 1903/1912 04004KT 2500 BR/-RA SCT016 FEW025CB OVC090 
     BECMG 1904/1906 06005KT 3500 BR/HZ SCT018 BKN090 
     BECMG 1908/1910 4000 HZ
       
VILK 190230Z 11004KT 2000 BR SCT020 BKN100 16/13 NOSIG
TAF VILK 190200Z 1903/1912 VRB02KT 2000 BR HZ SCT020 BKN100 
     BECMG 1908/1910 30005KT 3000 HZ FEW030 SCT100
       
VOMD 190230Z 00000KT 4000 HZ FEW020 SCT100 27/23 Q1013 NOSIG
TAF VOMD 182300Z 1900/2006 18005KT 5000 HZ FEW018 SCT100 
     TEMPO 1900/1903 3000 BR 
     BECMG 1909/1910 18010KT 6000 
     BECMG 1918/1919 18005KT 5000 HZ 
     TEMPO 2000/2003 3000 BR
       
VOML 190230Z 07004KT 6000 NSC 23/17 Q1012 NOSIG
TAF VOML 190200Z 1903/1912 11010KT 6000 FEW015 
     BECMG 1906/1907 27010KT
       
VANP 190230Z 00000KT 3000 HZ NSC 20/11 Q1014 NOSIG
TAF VANP 190200Z 1903/1912 05003KT 3000 HZ NSC 
     BECMG 1904/1906 11004KT 4000 HZ 
     BECMG 1908/1910 13005KT 5000 HZ
       
VECC 190230Z 01003KT 1300 R01R/1400 BR NSC 18/16 Q1014 NOSIG
TAF VECC 190200Z 1903/1912 22005KT 1800 BR NSC 
     BECMG 1904/1906 2600 HZ 
     BECMG 1906/1908 3800 HZ
       
VEPT 190230Z 14003KT 2500 HZ NSC 18/11 Q1014 NOSIG
TAF VEPT 190200Z 1903/1912 12005KT 2500 HZ NSC 
     BECMG 1904/1905 3500 HZ 
     BECMG 1906/1908 23008KT 4500 HZ
       
VAPR 190230Z 00000KT 4000 HZ FEW080 17/14 Q1012
TAF VAPR 190200Z 1903/1912 36004KT 2000 HZ FU FEW080 
     BECMG 1904/1906 29006KT 5000 FU 
     BECMG 1907/1909 6000 
       
VOPB 190100Z VRB02KT 3500 BR FEW018 25/23 Q1013 NOSIG
TAF VOPB 182300Z 1900/1909 07010KT 5000 HZ SCT018 SCT220 
     TEMPO 1900/1902 3500 BR
       
TAF VAPO 182130Z 1900/1912 28003KT 5000 HZ NSC 
     TEMPO 1903/1904 4000 HZ 
     BECMG 1905/1906 VRB02KT 6000 NSC 
     BECMG 1907/1908 27008KT NSW
       
VORY 190230Z 07005KT 3000 HZ FEW020 27/21 Q1013 NOSIG
TAF VORY 190200Z 1903/1912 VRB03KT 3000 BR FEW020 
     BECMG 1904/1906 28007KT 5000 HZ SCT020
       
VARK 190100Z 25005KT 6000 FEW012 19/17 Q1011
TAF VARK 190200Z 1903/1912 32004KT 1500 HZ FU FEW080 
     BECMG 1904/1906 3000 FU 
     BECMG 1907/1909 6000 
       
VIDD 190230Z 11002KT 0800 MIFG FEW035 SCT100 13/13 Q1012 NOSIG
TAF VISM 182300Z 1900/1909 00000KT 1200 BR FEW030 SCT100 
     BECMG 1905/1907 09006KT 3000 HZ
       
TAF VASL 190200Z 1903/1912 00000KT 3000 HZ NSC 
     BECMG 1904/1906 VRB03KT 4000 HZ 
       
TAF VEKU 190200Z 1903/1912 05004KT 2500 BR SCT018 BKN100 
     BECMG 1904/1906 07006KT 4000 HZ 
     BECMG 1908/1910 5000 HZ
       
VISR 190130Z VRB02KT 4000 BR BKN008 SCT015 BKN080 01/01 Q1014 TEMPO 3000 RA
VASU 190230Z 00000KT 0800 FG NSC 17/15 Q1012
TAF VASU 190200Z 1903/1912 05003KT 1500 HZ FU FEW080 
     BECMG 1904/1906 34005KT 3000 FU 
     BECMG 1907/1909 6000 
       
TAF VETZ 190200Z 1903/1912 05004KT 3000 BR/-RA SCT016 FEW025CB OVC090 
     BECMG 1904/1906 04006KT 4000 BR/HZ SCT018 BKN090 
     BECMG 1908/1910 5000 HZ
       
VOTV 190230Z 09005KT 4000 HZ FEW015 28/23 Q1011 BECMG 5000 HZ
TAF VOTV 190200Z 1903/1912 07005KT 4000 HZ SCT015 FEW025CB BKN090 
     BECMG 1905/1906 35010G20KT 5000 HZ 
     TEMPO 1909/1912 FEW025CB
       
VOTR 190230Z 09005KT 3000 BR FEW016 28/23 Q1012 NOSIG
TAF VOTR 182300Z 1900/2006 18005KT 4000 BR FEW016 SCT100 
     TEMPO 1900/1903 3000 BR 
     BECMG 1905/1906 6000 
     BECMG 1918/1919 4000 BR 
     TEMPO 2000/2003 3000 BR 
     BECMG 2005/2006 6000
       
VOTP 190230Z 00000KT 6000 SCT020 28/24 Q1013 NOSIG
TAF VOTP 190200Z 1903/1912 07008KT 6000 SCT15
       
VAUD 190200Z 32003KT 6000 FEW030 13/07 Q1012 NOSIG
TAF VAUD 190200Z 1903/1912 14005KT 5000 HZ NSC 
     BECMG 1904/1906 6000 FEW030 SCT100
       
VABO 190230Z 00000KT 2000 HZ NSC 18/11 Q1012 NOSIG
TAF VABO 190200Z 1903/1912 04003KT 1500 HZ FU FEW080 
     BECMG 1904/1906 30005KT 3000 FU 
     BECMG 1907/1909 31005KT 6000 
       
VOBZ 190230Z 11002KT 2000 BR SCT020 27/23 Q1013 NOSIG
TAF VOBZ 1903/1912 VRB03KT 3000 BR SCT020 
     TEMPO 1900/1903 00000KT 1500 BR SCT015 
     BECMG 1904/1906 23007KT 5000 HZ SCT020